sensor_id;sensor_type;location;lat;lon;timestamp;P1;durP1;ratioP1;P2;durP2;ratioP2
14235;SDS011;7202;50.718;7.072;2022-09-28T00:02:21;2.72;;;1.35;;
14235;SDS011;7202;50.718;7.072;2022-09-28T00:04:50;2.70;;;1.25;;
14235;SDS011;7202;50.718;7.072;2022-09-28T00:07:20;4.60;;;1.88;;
14235;SDS011;7202;50.718;7.072;2022-09-28T00:09:49;3.17;;;1.10;;
14235;SDS011;7202;50.718;7.072;2022-09-28T00:12:17;4.63;;;1.27;;
14235;SDS011;7202;50.718;7.072;2022-09-28T00:14:47;1.55;;;1.30;;
14235;SDS011;7202;50.718;7.072;2022-09-28T00:17:15;2.45;;;1.30;;
14235;SDS011;7202;50.718;7.072;2022-09-28T00:19:48;1.10;;;0.93;;
14235;SDS011;7202;50.718;7.072;2022-09-28T00:22:16;1.88;;;0.98;;
14235;SDS011;7202;50.718;7.072;2022-09-28T00:24:46;1.58;;;1.00;;
14235;SDS011;7202;50.718;7.072;2022-09-28T00:27:15;2.28;;;0.90;;
14235;SDS011;7202;50.718;7.072;2022-09-28T00:29:43;1.63;;;1.00;;
14235;SDS011;7202;50.718;7.072;2022-09-28T00:32:12;1.15;;;0.70;;
14235;SDS011;7202;50.718;7.072;2022-09-28T00:34:42;4.00;;;1.00;;
14235;SDS011;7202;50.718;7.072;2022-09-28T00:37:13;2.00;;;1.02;;
14235;SDS011;7202;50.718;7.072;2022-09-28T00:39:41;1.20;;;0.68;;
14235;SDS011;7202;50.718;7.072;2022-09-28T00:42:12;1.55;;;0.77;;
14235;SDS011;7202;50.718;7.072;2022-09-28T00:44:45;1.38;;;0.85;;
14235;SDS011;7202;50.718;7.072;2022-09-28T00:47:19;1.10;;;0.80;;
14235;SDS011;7202;50.718;7.072;2022-09-28T00:49:54;2.45;;;0.80;;
14235;SDS011;7202;50.718;7.072;2022-09-28T00:52:29;1.23;;;0.73;;
14235;SDS011;7202;50.718;7.072;2022-09-28T00:55:02;3.53;;;0.80;;
14235;SDS011;7202;50.718;7.072;2022-09-28T00:57:35;0.73;;;0.73;;
14235;SDS011;7202;50.718;7.072;2022-09-28T01:00:07;2.60;;;0.60;;
14235;SDS011;7202;50.718;7.072;2022-09-28T01:02:38;0.95;;;0.52;;
14235;SDS011;7202;50.718;7.072;2022-09-28T01:05:07;0.82;;;0.50;;
14235;SDS011;7202;50.718;7.072;2022-09-28T01:07:38;0.90;;;0.70;;
14235;SDS011;7202;50.718;7.072;2022-09-28T01:10:09;1.17;;;0.65;;
14235;SDS011;7202;50.718;7.072;2022-09-28T01:12:40;2.25;;;0.60;;
14235;SDS011;7202;50.718;7.072;2022-09-28T01:15:08;1.65;;;0.70;;
14235;SDS011;7202;50.718;7.072;2022-09-28T01:17:43;2.50;;;0.82;;
14235;SDS011;7202;50.718;7.072;2022-09-28T01:23:31;1.30;;;0.63;;
14235;SDS011;7202;50.718;7.072;2022-09-28T01:26:35;0.50;;;0.47;;
14235;SDS011;7202;50.718;7.072;2022-09-28T01:29:27;3.63;;;0.65;;
14235;SDS011;7202;50.718;7.072;2022-09-28T01:32:04;1.52;;;0.63;;
14235;SDS011;7202;50.718;7.072;2022-09-28T01:34:40;0.93;;;0.70;;
14235;SDS011;7202;50.718;7.072;2022-09-28T01:37:13;0.63;;;0.50;;
14235;SDS011;7202;50.718;7.072;2022-09-28T01:39:47;1.20;;;0.80;;
14235;SDS011;7202;50.718;7.072;2022-09-28T01:42:21;1.50;;;0.80;;
14235;SDS011;7202;50.718;7.072;2022-09-28T01:44:52;2.63;;;0.98;;
14235;SDS011;7202;50.718;7.072;2022-09-28T01:47:23;2.45;;;0.85;;
14235;SDS011;7202;50.718;7.072;2022-09-28T01:49:59;2.15;;;1.10;;
14235;SDS011;7202;50.718;7.072;2022-09-28T01:52:48;3.35;;;1.10;;
14235;SDS011;7202;50.718;7.072;2022-09-28T01:55:25;1.58;;;0.70;;
14235;SDS011;7202;50.718;7.072;2022-09-28T01:58:00;2.22;;;0.80;;
14235;SDS011;7202;50.718;7.072;2022-09-28T02:00:36;2.72;;;1.00;;
14235;SDS011;7202;50.718;7.072;2022-09-28T02:03:10;2.25;;;0.80;;
14235;SDS011;7202;50.718;7.072;2022-09-28T02:05:47;0.55;;;0.50;;
14235;SDS011;7202;50.718;7.072;2022-09-28T02:08:22;0.82;;;0.70;;
14235;SDS011;7202;50.718;7.072;2022-09-28T02:10:56;1.10;;;0.60;;
14235;SDS011;7202;50.718;7.072;2022-09-28T02:13:30;3.15;;;0.60;;
14235;SDS011;7202;50.718;7.072;2022-09-28T02:16:04;0.90;;;0.73;;
14235;SDS011;7202;50.718;7.072;2022-09-28T02:18:37;2.03;;;0.82;;
14235;SDS011;7202;50.718;7.072;2022-09-28T02:21:08;3.20;;;1.63;;
14235;SDS011;7202;50.718;7.072;2022-09-28T02:23:40;1.75;;;0.68;;
14235;SDS011;7202;50.718;7.072;2022-09-28T02:26:16;3.15;;;0.90;;
14235;SDS011;7202;50.718;7.072;2022-09-28T02:28:51;1.88;;;0.95;;
14235;SDS011;7202;50.718;7.072;2022-09-28T02:31:19;2.17;;;0.82;;
14235;SDS011;7202;50.718;7.072;2022-09-28T02:33:48;1.08;;;0.63;;
14235;SDS011;7202;50.718;7.072;2022-09-28T02:36:18;1.35;;;0.85;;
14235;SDS011;7202;50.718;7.072;2022-09-28T02:38:46;2.28;;;0.82;;
14235;SDS011;7202;50.718;7.072;2022-09-28T02:41:18;0.90;;;0.70;;
14235;SDS011;7202;50.718;7.072;2022-09-28T02:43:58;1.67;;;0.80;;
14235;SDS011;7202;50.718;7.072;2022-09-28T02:46:37;1.17;;;0.80;;
14235;SDS011;7202;50.718;7.072;2022-09-28T02:49:24;3.13;;;1.10;;
14235;SDS011;7202;50.718;7.072;2022-09-28T02:52:03;1.85;;;1.15;;
14235;SDS011;7202;50.718;7.072;2022-09-28T02:57:44;1.77;;;1.00;;
14235;SDS011;7202;50.718;7.072;2022-09-28T03:00:23;3.40;;;1.13;;
14235;SDS011;7202;50.718;7.072;2022-09-28T03:02:57;1.38;;;1.10;;
14235;SDS011;7202;50.718;7.072;2022-09-28T03:05:32;1.00;;;0.90;;
14235;SDS011;7202;50.718;7.072;2022-09-28T03:08:10;1.48;;;1.05;;
14235;SDS011;7202;50.718;7.072;2022-09-28T03:10:45;2.25;;;0.90;;
14235;SDS011;7202;50.718;7.072;2022-09-28T03:13:20;4.28;;;1.20;;
14235;SDS011;7202;50.718;7.072;2022-09-28T03:15:50;1.65;;;1.05;;
14235;SDS011;7202;50.718;7.072;2022-09-28T03:18:19;2.15;;;1.02;;
14235;SDS011;7202;50.718;7.072;2022-09-28T03:20:48;1.02;;;0.90;;
14235;SDS011;7202;50.718;7.072;2022-09-28T03:23:16;2.70;;;1.10;;
14235;SDS011;7202;50.718;7.072;2022-09-28T03:25:51;1.98;;;1.23;;
14235;SDS011;7202;50.718;7.072;2022-09-28T03:28:20;1.60;;;1.00;;
14235;SDS011;7202;50.718;7.072;2022-09-28T03:30:50;3.65;;;1.10;;
14235;SDS011;7202;50.718;7.072;2022-09-28T03:33:19;2.75;;;1.02;;
14235;SDS011;7202;50.718;7.072;2022-09-28T03:35:49;3.15;;;1.20;;
14235;SDS011;7202;50.718;7.072;2022-09-28T03:38:18;2.08;;;1.00;;
14235;SDS011;7202;50.718;7.072;2022-09-28T03:40:53;2.38;;;1.30;;
14235;SDS011;7202;50.718;7.072;2022-09-28T03:43:22;2.55;;;1.55;;
14235;SDS011;7202;50.718;7.072;2022-09-28T03:45:55;1.95;;;1.10;;
14235;SDS011;7202;50.718;7.072;2022-09-28T03:48:27;1.48;;;1.13;;
14235;SDS011;7202;50.718;7.072;2022-09-28T03:50:59;1.70;;;1.50;;
14235;SDS011;7202;50.718;7.072;2022-09-28T03:53:29;2.00;;;1.30;;
14235;SDS011;7202;50.718;7.072;2022-09-28T03:56:01;1.83;;;1.02;;
14235;SDS011;7202;50.718;7.072;2022-09-28T03:58:31;1.65;;;1.30;;
14235;SDS011;7202;50.718;7.072;2022-09-28T04:01:01;2.13;;;1.30;;
14235;SDS011;7202;50.718;7.072;2022-09-28T04:03:31;1.55;;;1.17;;
14235;SDS011;7202;50.718;7.072;2022-09-28T04:06:00;1.80;;;1.30;;
14235;SDS011;7202;50.718;7.072;2022-09-28T04:08:29;1.88;;;1.42;;
14235;SDS011;7202;50.718;7.072;2022-09-28T04:10:57;1.50;;;1.20;;
14235;SDS011;7202;50.718;7.072;2022-09-28T04:13:28;3.47;;;1.17;;
14235;SDS011;7202;50.718;7.072;2022-09-28T04:15:58;1.55;;;1.00;;
14235;SDS011;7202;50.718;7.072;2022-09-28T04:18:33;2.95;;;1.38;;
14235;SDS011;7202;50.718;7.072;2022-09-28T04:21:27;3.90;;;1.60;;
14235;SDS011;7202;50.718;7.072;2022-09-28T04:24:02;2.13;;;1.45;;
14235;SDS011;7202;50.718;7.072;2022-09-28T04:26:31;2.33;;;1.40;;
14235;SDS011;7202;50.718;7.072;2022-09-28T04:29:01;3.22;;;1.48;;
14235;SDS011;7202;50.718;7.072;2022-09-28T04:31:51;1.73;;;1.48;;
14235;SDS011;7202;50.718;7.072;2022-09-28T04:34:48;2.35;;;1.80;;
14235;SDS011;7202;50.718;7.072;2022-09-28T04:37:17;4.05;;;1.58;;
14235;SDS011;7202;50.718;7.072;2022-09-28T04:39:45;2.78;;;1.63;;
14235;SDS011;7202;50.718;7.072;2022-09-28T04:42:17;3.70;;;1.42;;
14235;SDS011;7202;50.718;7.072;2022-09-28T04:44:48;4.43;;;1.40;;
14235;SDS011;7202;50.718;7.072;2022-09-28T04:47:16;2.55;;;1.33;;
14235;SDS011;7202;50.718;7.072;2022-09-28T04:49:58;4.22;;;2.03;;
14235;SDS011;7202;50.718;7.072;2022-09-28T04:52:30;2.67;;;1.70;;
14235;SDS011;7202;50.718;7.072;2022-09-28T04:54:59;2.47;;;1.50;;
14235;SDS011;7202;50.718;7.072;2022-09-28T04:57:27;3.03;;;1.70;;
14235;SDS011;7202;50.718;7.072;2022-09-28T04:59:56;2.05;;;1.50;;
14235;SDS011;7202;50.718;7.072;2022-09-28T05:02:24;2.63;;;1.67;;
14235;SDS011;7202;50.718;7.072;2022-09-28T05:05:24;2.85;;;1.60;;
14235;SDS011;7202;50.718;7.072;2022-09-28T05:08:07;2.10;;;1.20;;
14235;SDS011;7202;50.718;7.072;2022-09-28T05:10:35;5.10;;;1.80;;
14235;SDS011;7202;50.718;7.072;2022-09-28T05:13:06;3.03;;;1.55;;
14235;SDS011;7202;50.718;7.072;2022-09-28T05:15:35;7.32;;;2.00;;
14235;SDS011;7202;50.718;7.072;2022-09-28T05:18:04;3.33;;;2.05;;
14235;SDS011;7202;50.718;7.072;2022-09-28T05:20:46;2.45;;;1.77;;
14235;SDS011;7202;50.718;7.072;2022-09-28T05:23:15;3.63;;;2.13;;
14235;SDS011;7202;50.718;7.072;2022-09-28T05:25:45;3.20;;;1.83;;
14235;SDS011;7202;50.718;7.072;2022-09-28T05:28:17;3.63;;;2.00;;
14235;SDS011;7202;50.718;7.072;2022-09-28T05:31:16;4.28;;;2.28;;
14235;SDS011;7202;50.718;7.072;2022-09-28T05:34:17;5.97;;;2.40;;
14235;SDS011;7202;50.718;7.072;2022-09-28T05:36:47;3.58;;;3.03;;
14235;SDS011;7202;50.718;7.072;2022-09-28T05:39:17;5.18;;;2.78;;
14235;SDS011;7202;50.718;7.072;2022-09-28T05:41:45;3.70;;;3.10;;
14235;SDS011;7202;50.718;7.072;2022-09-28T05:44:14;5.63;;;3.00;;
14235;SDS011;7202;50.718;7.072;2022-09-28T05:46:43;4.22;;;2.88;;
14235;SDS011;7202;50.718;7.072;2022-09-28T05:49:12;3.70;;;3.13;;
14235;SDS011;7202;50.718;7.072;2022-09-28T05:51:40;4.22;;;3.40;;
14235;SDS011;7202;50.718;7.072;2022-09-28T05:54:10;4.13;;;2.97;;
14235;SDS011;7202;50.718;7.072;2022-09-28T05:56:43;5.32;;;3.25;;
14235;SDS011;7202;50.718;7.072;2022-09-28T05:59:11;3.65;;;2.90;;
14235;SDS011;7202;50.718;7.072;2022-09-28T06:01:40;4.18;;;2.75;;
14235;SDS011;7202;50.718;7.072;2022-09-28T06:04:10;3.70;;;2.88;;
14235;SDS011;7202;50.718;7.072;2022-09-28T06:06:41;7.00;;;3.50;;
14235;SDS011;7202;50.718;7.072;2022-09-28T06:09:11;7.70;;;3.00;;
14235;SDS011;7202;50.718;7.072;2022-09-28T06:12:03;4.53;;;3.70;;
14235;SDS011;7202;50.718;7.072;2022-09-28T06:14:39;4.50;;;3.25;;
14235;SDS011;7202;50.718;7.072;2022-09-28T06:17:07;5.43;;;3.47;;
14235;SDS011;7202;50.718;7.072;2022-09-28T06:19:36;4.20;;;3.75;;
14235;SDS011;7202;50.718;7.072;2022-09-28T06:22:05;4.47;;;3.33;;
14235;SDS011;7202;50.718;7.072;2022-09-28T06:24:43;5.90;;;3.10;;
14235;SDS011;7202;50.718;7.072;2022-09-28T06:27:12;5.40;;;3.20;;
14235;SDS011;7202;50.718;7.072;2022-09-28T06:29:41;7.47;;;3.42;;
14235;SDS011;7202;50.718;7.072;2022-09-28T06:32:11;5.60;;;3.55;;
14235;SDS011;7202;50.718;7.072;2022-09-28T06:34:41;5.20;;;3.60;;
14235;SDS011;7202;50.718;7.072;2022-09-28T06:37:10;4.30;;;2.90;;
14235;SDS011;7202;50.718;7.072;2022-09-28T06:39:38;3.45;;;2.72;;
14235;SDS011;7202;50.718;7.072;2022-09-28T06:42:08;5.70;;;3.00;;
14235;SDS011;7202;50.718;7.072;2022-09-28T06:44:57;4.60;;;2.95;;
14235;SDS011;7202;50.718;7.072;2022-09-28T06:47:43;4.07;;;2.95;;
14235;SDS011;7202;50.718;7.072;2022-09-28T06:50:24;7.90;;;3.70;;
14235;SDS011;7202;50.718;7.072;2022-09-28T06:53:12;3.70;;;2.90;;
14235;SDS011;7202;50.718;7.072;2022-09-28T06:55:55;4.05;;;3.03;;
14235;SDS011;7202;50.718;7.072;2022-09-28T06:58:25;4.50;;;2.88;;
14235;SDS011;7202;50.718;7.072;2022-09-28T07:00:56;2.85;;;2.58;;
14235;SDS011;7202;50.718;7.072;2022-09-28T07:03:28;4.18;;;3.00;;
14235;SDS011;7202;50.718;7.072;2022-09-28T07:06:20;4.53;;;2.90;;
14235;SDS011;7202;50.718;7.072;2022-09-28T07:09:11;5.38;;;2.75;;
14235;SDS011;7202;50.718;7.072;2022-09-28T07:12:11;5.10;;;2.80;;
14235;SDS011;7202;50.718;7.072;2022-09-28T07:14:51;5.43;;;3.03;;
14235;SDS011;7202;50.718;7.072;2022-09-28T07:17:23;3.83;;;2.80;;
14235;SDS011;7202;50.718;7.072;2022-09-28T07:19:53;5.90;;;2.78;;
14235;SDS011;7202;50.718;7.072;2022-09-28T07:22:28;3.42;;;2.72;;
14235;SDS011;7202;50.718;7.072;2022-09-28T07:25:12;3.38;;;2.70;;
14235;SDS011;7202;50.718;7.072;2022-09-28T07:28:01;3.50;;;2.50;;
14235;SDS011;7202;50.718;7.072;2022-09-28T07:30:52;5.00;;;2.55;;
14235;SDS011;7202;50.718;7.072;2022-09-28T07:33:49;3.47;;;2.30;;
14235;SDS011;7202;50.718;7.072;2022-09-28T07:36:28;4.65;;;2.53;;
14235;SDS011;7202;50.718;7.072;2022-09-28T07:38:57;4.25;;;2.40;;
14235;SDS011;7202;50.718;7.072;2022-09-28T07:41:25;6.20;;;2.40;;
14235;SDS011;7202;50.718;7.072;2022-09-28T07:44:00;3.28;;;2.30;;
14235;SDS011;7202;50.718;7.072;2022-09-28T07:46:35;2.50;;;2.25;;
14235;SDS011;7202;50.718;7.072;2022-09-28T07:49:09;2.63;;;2.13;;
14235;SDS011;7202;50.718;7.072;2022-09-28T07:51:53;2.20;;;1.80;;
14235;SDS011;7202;50.718;7.072;2022-09-28T07:54:37;5.20;;;2.25;;
14235;SDS011;7202;50.718;7.072;2022-09-28T07:57:27;2.50;;;2.13;;
14235;SDS011;7202;50.718;7.072;2022-09-28T08:00:11;4.72;;;2.20;;
14235;SDS011;7202;50.718;7.072;2022-09-28T08:02:45;2.25;;;1.77;;
14235;SDS011;7202;50.718;7.072;2022-09-28T08:05:21;3.13;;;1.77;;
14235;SDS011;7202;50.718;7.072;2022-09-28T08:07:50;3.58;;;1.90;;
14235;SDS011;7202;50.718;7.072;2022-09-28T08:10:19;3.78;;;2.28;;
14235;SDS011;7202;50.718;7.072;2022-09-28T08:13:06;3.83;;;1.98;;
14235;SDS011;7202;50.718;7.072;2022-09-28T08:15:50;1.67;;;1.48;;
14235;SDS011;7202;50.718;7.072;2022-09-28T08:18:29;3.42;;;1.77;;
14235;SDS011;7202;50.718;7.072;2022-09-28T08:20:58;2.45;;;1.90;;
14235;SDS011;7202;50.718;7.072;2022-09-28T08:23:43;1.90;;;1.50;;
14235;SDS011;7202;50.718;7.072;2022-09-28T08:26:13;3.17;;;2.00;;
14235;SDS011;7202;50.718;7.072;2022-09-28T08:28:44;5.07;;;1.85;;
14235;SDS011;7202;50.718;7.072;2022-09-28T08:31:42;2.78;;;1.80;;
14235;SDS011;7202;50.718;7.072;2022-09-28T08:34:38;5.72;;;1.52;;
14235;SDS011;7202;50.718;7.072;2022-09-28T08:37:20;2.15;;;1.55;;
14235;SDS011;7202;50.718;7.072;2022-09-28T08:40:08;3.20;;;1.58;;
14235;SDS011;7202;50.718;7.072;2022-09-28T08:43:03;2.55;;;1.50;;
14235;SDS011;7202;50.718;7.072;2022-09-28T08:45:52;2.50;;;1.27;;
14235;SDS011;7202;50.718;7.072;2022-09-28T08:48:51;2.05;;;1.10;;
14235;SDS011;7202;50.718;7.072;2022-09-28T08:52:04;1.88;;;1.20;;
14235;SDS011;7202;50.718;7.072;2022-09-28T08:54:59;2.63;;;1.50;;
14235;SDS011;7202;50.718;7.072;2022-09-28T08:57:39;2.05;;;1.30;;
14235;SDS011;7202;50.718;7.072;2022-09-28T09:00:16;2.72;;;1.40;;
14235;SDS011;7202;50.718;7.072;2022-09-28T09:02:47;1.58;;;1.17;;
14235;SDS011;7202;50.718;7.072;2022-09-28T09:05:19;1.42;;;1.33;;
14235;SDS011;7202;50.718;7.072;2022-09-28T09:08:06;1.77;;;1.20;;
14235;SDS011;7202;50.718;7.072;2022-09-28T09:10:49;2.95;;;1.02;;
14235;SDS011;7202;50.718;7.072;2022-09-28T09:13:47;3.10;;;0.90;;
14235;SDS011;7202;50.718;7.072;2022-09-28T09:16:41;1.38;;;0.90;;
14235;SDS011;7202;50.718;7.072;2022-09-28T09:19:44;1.10;;;0.68;;
14235;SDS011;7202;50.718;7.072;2022-09-28T09:22:28;1.88;;;0.73;;
14235;SDS011;7202;50.718;7.072;2022-09-28T09:25:15;1.48;;;0.77;;
14235;SDS011;7202;50.718;7.072;2022-09-28T09:31:01;3.47;;;0.70;;
14235;SDS011;7202;50.718;7.072;2022-09-28T09:34:01;1.75;;;0.77;;
14235;SDS011;7202;50.718;7.072;2022-09-28T09:37:20;3.40;;;0.80;;
14235;SDS011;7202;50.718;7.072;2022-09-28T09:40:25;1.33;;;0.60;;
14235;SDS011;7202;50.718;7.072;2022-09-28T09:43:29;2.78;;;0.75;;
14235;SDS011;7202;50.718;7.072;2022-09-28T09:46:39;1.38;;;0.80;;
14235;SDS011;7202;50.718;7.072;2022-09-28T09:49:21;1.33;;;0.60;;
14235;SDS011;7202;50.718;7.072;2022-09-28T09:51:54;2.67;;;0.80;;
14235;SDS011;7202;50.718;7.072;2022-09-28T09:54:27;1.48;;;0.70;;
14235;SDS011;7202;50.718;7.072;2022-09-28T09:57:04;2.20;;;0.80;;
14235;SDS011;7202;50.718;7.072;2022-09-28T09:59:44;1.35;;;0.65;;
14235;SDS011;7202;50.718;7.072;2022-09-28T10:02:22;1.50;;;0.73;;
14235;SDS011;7202;50.718;7.072;2022-09-28T10:05:16;0.80;;;0.50;;
14235;SDS011;7202;50.718;7.072;2022-09-28T10:07:50;1.85;;;0.60;;
14235;SDS011;7202;50.718;7.072;2022-09-28T10:10:24;1.48;;;0.70;;
14235;SDS011;7202;50.718;7.072;2022-09-28T10:13:08;1.20;;;1.10;;
14235;SDS011;7202;50.718;7.072;2022-09-28T10:15:37;1.65;;;0.57;;
14235;SDS011;7202;50.718;7.072;2022-09-28T10:18:21;3.22;;;0.70;;
14235;SDS011;7202;50.718;7.072;2022-09-28T10:21:19;1.33;;;0.60;;
14235;SDS011;7202;50.718;7.072;2022-09-28T10:24:04;1.83;;;0.45;;
14235;SDS011;7202;50.718;7.072;2022-09-28T10:26:34;3.35;;;0.60;;
14235;SDS011;7202;50.718;7.072;2022-09-28T10:29:12;2.90;;;0.60;;
14235;SDS011;7202;50.718;7.072;2022-09-28T10:31:44;0.93;;;0.60;;
14235;SDS011;7202;50.718;7.072;2022-09-28T10:34:27;2.88;;;0.70;;
14235;SDS011;7202;50.718;7.072;2022-09-28T10:37:05;2.78;;;0.70;;
14235;SDS011;7202;50.718;7.072;2022-09-28T10:40:04;1.60;;;0.63;;
14235;SDS011;7202;50.718;7.072;2022-09-28T10:42:58;1.92;;;0.57;;
14235;SDS011;7202;50.718;7.072;2022-09-28T10:45:32;0.75;;;0.70;;
14235;SDS011;7202;50.718;7.072;2022-09-28T10:48:03;1.33;;;0.55;;
14235;SDS011;7202;50.718;7.072;2022-09-28T10:50:40;1.63;;;0.70;;
14235;SDS011;7202;50.718;7.072;2022-09-28T10:53:16;0.60;;;0.32;;
14235;SDS011;7202;50.718;7.072;2022-09-28T10:56:11;1.35;;;0.73;;
14235;SDS011;7202;50.718;7.072;2022-09-28T10:58:49;0.88;;;0.68;;
14235;SDS011;7202;50.718;7.072;2022-09-28T11:01:29;0.95;;;0.60;;
14235;SDS011;7202;50.718;7.072;2022-09-28T11:04:00;2.38;;;0.70;;
14235;SDS011;7202;50.718;7.072;2022-09-28T11:06:30;2.72;;;0.70;;
14235;SDS011;7202;50.718;7.072;2022-09-28T11:09:04;1.90;;;0.85;;
14235;SDS011;7202;50.718;7.072;2022-09-28T11:11:55;1.00;;;0.68;;
14235;SDS011;7202;50.718;7.072;2022-09-28T11:14:26;1.25;;;0.70;;
14235;SDS011;7202;50.718;7.072;2022-09-28T11:17:15;1.83;;;0.93;;
14235;SDS011;7202;50.718;7.072;2022-09-28T11:19:46;2.15;;;0.80;;
14235;SDS011;7202;50.718;7.072;2022-09-28T11:22:18;3.30;;;0.80;;
14235;SDS011;7202;50.718;7.072;2022-09-28T11:25:13;2.25;;;0.82;;
14235;SDS011;7202;50.718;7.072;2022-09-28T11:27:57;2.40;;;0.70;;
14235;SDS011;7202;50.718;7.072;2022-09-28T11:30:28;1.50;;;0.63;;
14235;SDS011;7202;50.718;7.072;2022-09-28T11:33:25;0.70;;;0.55;;
14235;SDS011;7202;50.718;7.072;2022-09-28T11:36:34;2.75;;;0.88;;
14235;SDS011;7202;50.718;7.072;2022-09-28T11:39:30;1.95;;;0.80;;
14235;SDS011;7202;50.718;7.072;2022-09-28T11:42:09;1.38;;;0.82;;
14235;SDS011;7202;50.718;7.072;2022-09-28T11:44:47;3.35;;;0.55;;
14235;SDS011;7202;50.718;7.072;2022-09-28T11:47:31;1.48;;;0.75;;
14235;SDS011;7202;50.718;7.072;2022-09-28T11:50:25;1.58;;;0.63;;
14235;SDS011;7202;50.718;7.072;2022-09-28T11:52:59;1.80;;;0.77;;
14235;SDS011;7202;50.718;7.072;2022-09-28T11:55:39;1.88;;;0.88;;
14235;SDS011;7202;50.718;7.072;2022-09-28T11:58:13;0.45;;;0.45;;
14235;SDS011;7202;50.718;7.072;2022-09-28T12:00:51;1.73;;;0.60;;
14235;SDS011;7202;50.718;7.072;2022-09-28T12:03:38;1.58;;;0.90;;
14235;SDS011;7202;50.718;7.072;2022-09-28T12:06:13;1.00;;;0.70;;
14235;SDS011;7202;50.718;7.072;2022-09-28T12:08:45;2.35;;;0.95;;
14235;SDS011;7202;50.718;7.072;2022-09-28T12:11:59;0.95;;;0.80;;
14235;SDS011;7202;50.718;7.072;2022-09-28T12:14:58;1.50;;;0.90;;
14235;SDS011;7202;50.718;7.072;2022-09-28T12:17:31;1.55;;;0.80;;
14235;SDS011;7202;50.718;7.072;2022-09-28T12:20:09;2.05;;;1.05;;
14235;SDS011;7202;50.718;7.072;2022-09-28T12:22:47;2.33;;;1.23;;
14235;SDS011;7202;50.718;7.072;2022-09-28T12:25:22;0.93;;;0.80;;
14235;SDS011;7202;50.718;7.072;2022-09-28T12:27:52;1.80;;;0.95;;
14235;SDS011;7202;50.718;7.072;2022-09-28T12:30:24;3.90;;;1.20;;
14235;SDS011;7202;50.718;7.072;2022-09-28T12:32:59;1.48;;;0.93;;
14235;SDS011;7202;50.718;7.072;2022-09-28T12:35:35;1.10;;;0.90;;
14235;SDS011;7202;50.718;7.072;2022-09-28T12:38:21;1.77;;;1.00;;
14235;SDS011;7202;50.718;7.072;2022-09-28T12:41:03;2.65;;;1.05;;
14235;SDS011;7202;50.718;7.072;2022-09-28T12:46:35;2.85;;;1.08;;
14235;SDS011;7202;50.718;7.072;2022-09-28T12:49:24;1.42;;;0.90;;
14235;SDS011;7202;50.718;7.072;2022-09-28T12:52:23;3.08;;;0.98;;
14235;SDS011;7202;50.718;7.072;2022-09-28T12:58:04;2.28;;;1.23;;
14235;SDS011;7202;50.718;7.072;2022-09-28T13:00:48;1.13;;;0.77;;
14235;SDS011;7202;50.718;7.072;2022-09-28T13:03:39;2.67;;;1.00;;
14235;SDS011;7202;50.718;7.072;2022-09-28T13:06:35;3.08;;;1.10;;
14235;SDS011;7202;50.718;7.072;2022-09-28T13:09:14;1.85;;;1.05;;
14235;SDS011;7202;50.718;7.072;2022-09-28T13:11:53;2.17;;;1.10;;
14235;SDS011;7202;50.718;7.072;2022-09-28T13:14:40;2.17;;;1.33;;
14235;SDS011;7202;50.718;7.072;2022-09-28T13:17:36;1.90;;;1.15;;
14235;SDS011;7202;50.718;7.072;2022-09-28T13:20:16;3.03;;;1.35;;
14235;SDS011;7202;50.718;7.072;2022-09-28T13:23:00;1.70;;;1.10;;
14235;SDS011;7202;50.718;7.072;2022-09-28T13:25:43;2.88;;;1.10;;
14235;SDS011;7202;50.718;7.072;2022-09-28T13:28:19;2.42;;;1.25;;
14235;SDS011;7202;50.718;7.072;2022-09-28T13:30:53;2.05;;;1.55;;
14235;SDS011;7202;50.718;7.072;2022-09-28T13:33:29;2.88;;;1.25;;
14235;SDS011;7202;50.718;7.072;2022-09-28T13:36:01;2.03;;;1.27;;
14235;SDS011;7202;50.718;7.072;2022-09-28T13:41:22;1.58;;;1.10;;
14235;SDS011;7202;50.718;7.072;2022-09-28T13:44:06;1.98;;;1.25;;
14235;SDS011;7202;50.718;7.072;2022-09-28T13:46:44;2.25;;;1.40;;
14235;SDS011;7202;50.718;7.072;2022-09-28T13:49:19;3.75;;;1.45;;
14235;SDS011;7202;50.718;7.072;2022-09-28T13:51:55;2.95;;;0.98;;
14235;SDS011;7202;50.718;7.072;2022-09-28T13:54:37;2.38;;;1.20;;
14235;SDS011;7202;50.718;7.072;2022-09-28T13:57:17;2.20;;;1.20;;
14235;SDS011;7202;50.718;7.072;2022-09-28T14:00:02;1.95;;;1.30;;
14235;SDS011;7202;50.718;7.072;2022-09-28T14:02:41;1.92;;;1.20;;
14235;SDS011;7202;50.718;7.072;2022-09-28T14:08:29;2.05;;;1.30;;
14235;SDS011;7202;50.718;7.072;2022-09-28T14:11:22;2.30;;;1.20;;
14235;SDS011;7202;50.718;7.072;2022-09-28T14:20:24;2.75;;;1.35;;
14235;SDS011;7202;50.718;7.072;2022-09-28T14:22:57;3.50;;;1.40;;
14235;SDS011;7202;50.718;7.072;2022-09-28T14:26:15;2.20;;;1.02;;
14235;SDS011;7202;50.718;7.072;2022-09-28T14:29:00;2.55;;;1.30;;
14235;SDS011;7202;50.718;7.072;2022-09-28T14:31:39;3.85;;;1.48;;
14235;SDS011;7202;50.718;7.072;2022-09-28T14:34:21;3.70;;;1.50;;
14235;SDS011;7202;50.718;7.072;2022-09-28T14:36:54;5.68;;;1.30;;
14235;SDS011;7202;50.718;7.072;2022-09-28T14:39:42;2.78;;;1.40;;
14235;SDS011;7202;50.718;7.072;2022-09-28T14:42:29;2.10;;;1.40;;
14235;SDS011;7202;50.718;7.072;2022-09-28T14:45:17;2.08;;;1.40;;
14235;SDS011;7202;50.718;7.072;2022-09-28T14:50:42;5.38;;;1.40;;
14235;SDS011;7202;50.718;7.072;2022-09-28T14:53:15;3.33;;;1.38;;
14235;SDS011;7202;50.718;7.072;2022-09-28T14:55:47;2.97;;;1.40;;
14235;SDS011;7202;50.718;7.072;2022-09-28T14:58:18;1.73;;;1.38;;
14235;SDS011;7202;50.718;7.072;2022-09-28T15:00:52;5.55;;;1.60;;
14235;SDS011;7202;50.718;7.072;2022-09-28T15:03:27;5.57;;;1.67;;
14235;SDS011;7202;50.718;7.072;2022-09-28T15:05:58;3.80;;;1.33;;
14235;SDS011;7202;50.718;7.072;2022-09-28T15:08:38;3.38;;;1.55;;
14235;SDS011;7202;50.718;7.072;2022-09-28T15:11:10;1.52;;;1.30;;
14235;SDS011;7202;50.718;7.072;2022-09-28T15:13:42;1.95;;;1.55;;
14235;SDS011;7202;50.718;7.072;2022-09-28T15:16:12;2.50;;;1.45;;
14235;SDS011;7202;50.718;7.072;2022-09-28T15:21:47;1.98;;;1.52;;
14235;SDS011;7202;50.718;7.072;2022-09-28T15:24:24;3.28;;;1.30;;
14235;SDS011;7202;50.718;7.072;2022-09-28T15:26:54;2.50;;;1.70;;
14235;SDS011;7202;50.718;7.072;2022-09-28T15:29:23;2.38;;;1.20;;
14235;SDS011;7202;50.718;7.072;2022-09-28T15:31:53;3.05;;;1.52;;
14235;SDS011;7202;50.718;7.072;2022-09-28T15:34:25;2.45;;;1.38;;
14235;SDS011;7202;50.718;7.072;2022-09-28T15:37:13;2.92;;;1.30;;
14235;SDS011;7202;50.718;7.072;2022-09-28T15:39:46;1.42;;;1.20;;
14235;SDS011;7202;50.718;7.072;2022-09-28T15:42:15;2.65;;;1.60;;
14235;SDS011;7202;50.718;7.072;2022-09-28T15:45:04;2.70;;;1.10;;
14235;SDS011;7202;50.718;7.072;2022-09-28T15:47:51;2.95;;;1.50;;
14235;SDS011;7202;50.718;7.072;2022-09-28T15:50:24;1.70;;;1.20;;
14235;SDS011;7202;50.718;7.072;2022-09-28T15:52:56;2.80;;;1.40;;
14235;SDS011;7202;50.718;7.072;2022-09-28T15:55:29;2.47;;;1.50;;
14235;SDS011;7202;50.718;7.072;2022-09-28T15:58:04;1.70;;;1.23;;
14235;SDS011;7202;50.718;7.072;2022-09-28T16:00:34;2.38;;;1.67;;
14235;SDS011;7202;50.718;7.072;2022-09-28T16:03:16;2.20;;;1.35;;
14235;SDS011;7202;50.718;7.072;2022-09-28T16:05:48;2.85;;;1.65;;
14235;SDS011;7202;50.718;7.072;2022-09-28T16:08:19;1.38;;;1.27;;
14235;SDS011;7202;50.718;7.072;2022-09-28T16:10:53;1.98;;;1.42;;
14235;SDS011;7202;50.718;7.072;2022-09-28T16:13:26;4.15;;;1.70;;
14235;SDS011;7202;50.718;7.072;2022-09-28T16:15:56;3.80;;;1.73;;
14235;SDS011;7202;50.718;7.072;2022-09-28T16:18:26;5.22;;;1.75;;
14235;SDS011;7202;50.718;7.072;2022-09-28T16:20:57;1.40;;;1.10;;
14235;SDS011;7202;50.718;7.072;2022-09-28T16:23:44;3.72;;;1.10;;
14235;SDS011;7202;50.718;7.072;2022-09-28T16:26:26;2.08;;;1.10;;
14235;SDS011;7202;50.718;7.072;2022-09-28T16:28:58;2.45;;;1.02;;
14235;SDS011;7202;50.718;7.072;2022-09-28T16:31:28;3.53;;;1.38;;
14235;SDS011;7202;50.718;7.072;2022-09-28T16:34:15;1.40;;;0.90;;
14235;SDS011;7202;50.718;7.072;2022-09-28T16:36:47;0.85;;;0.70;;
14235;SDS011;7202;50.718;7.072;2022-09-28T16:39:17;2.08;;;1.20;;